createdAt,value
2022-12-19T00:18:04.909Z,-8.65
2022-12-19T00:38:07.649Z,-8.61
2022-12-19T00:58:10.323Z,-8.65
2022-12-19T01:18:12.948Z,-8.57
2022-12-19T01:38:15.722Z,-8.57
2022-12-19T01:58:18.298Z,-8.68
2022-12-19T02:18:20.985Z,-8.74
2022-12-19T02:38:23.730Z,-8.64
2022-12-19T02:58:26.273Z,-8.79
2022-12-19T03:18:28.817Z,-9.11
2022-12-19T03:38:31.321Z,-9.37
2022-12-19T03:58:33.788Z,-9.61
2022-12-19T04:18:36.340Z,-9.86
2022-12-19T04:38:39.055Z,-9.81
2022-12-19T04:58:41.682Z,-10.06
2022-12-19T05:18:45.099Z,-10.27
2022-12-19T05:38:47.936Z,-9.85
2022-12-19T05:58:50.502Z,-10.16
2022-12-19T06:18:53.194Z,-10.67
2022-12-19T06:38:56.891Z,-11.12
2022-12-19T06:59:02.655Z,-10.69
2022-12-19T07:19:06.344Z,-10.85
2022-12-19T07:39:11.607Z,-10.58
2022-12-19T07:59:14.335Z,-9.61
2022-12-19T08:19:16.942Z,-8.49
2022-12-19T08:39:19.432Z,-7.72
2022-12-19T08:59:30.991Z,-6.77
2022-12-19T09:19:34.550Z,-6.03
2022-12-19T09:39:37.398Z,-5.47
2022-12-19T09:59:47.721Z,-4.27
2022-12-19T10:19:52.551Z,-3.55
2022-12-19T10:39:55.017Z,-2.34
2022-12-19T10:59:57.538Z,-2.19
2022-12-19T11:29:43.776Z,-1.87
2022-12-19T11:40:22.634Z,-1.78
2022-12-19T12:00:25.670Z,-1.52
2022-12-19T12:31:31.133Z,-1.27
2022-12-19T12:40:51.797Z,-1.17
2022-12-19T13:00:54.274Z,-1.34
2022-12-19T13:20:56.875Z,-1.32
2022-12-19T13:40:59.353Z,-1.76
2022-12-19T14:01:02.328Z,-2.02
2022-12-19T14:26:52.234Z,-2.48
2022-12-19T14:53:08.348Z,-3.08
2022-12-19T15:05:52.897Z,-3.68
2022-12-19T15:26:06.131Z,-4.05
2022-12-19T15:46:09.541Z,-4.41
2022-12-19T16:06:12.031Z,-4.71
2022-12-19T16:26:14.846Z,-4.67
2022-12-19T16:46:17.567Z,-4.68
2022-12-19T17:06:20.070Z,-5.12
2022-12-19T17:26:22.824Z,-5.20
2022-12-19T18:26:58.996Z,-3.22
2022-12-19T18:47:02.430Z,-2.65
2022-12-19T19:07:05.038Z,-2.67
2022-12-19T19:27:07.857Z,-2.42
2022-12-19T19:47:11.570Z,-2.18
2022-12-19T20:07:14.233Z,-1.90
2022-12-19T20:27:16.942Z,-1.69
2022-12-19T20:47:19.758Z,-1.41
2022-12-19T21:07:22.923Z,-1.07
2022-12-19T21:27:25.623Z,-1.06
2022-12-19T21:47:29.186Z,-0.74
2022-12-19T22:48:11.183Z,0.07
2022-12-19T23:08:16.948Z,0.19
2022-12-19T23:28:19.368Z,0.66
